createdAt,value
2018-03-03T00:03:33.064Z,99919.33
2018-03-03T00:08:34.622Z,99900.94
2018-03-03T00:13:36.228Z,99896.16
2018-03-03T00:18:37.771Z,99894.09
2018-03-03T00:23:39.294Z,99895.02
2018-03-03T00:28:41.548Z,99887.03
2018-03-03T00:33:43.064Z,99887.77
2018-03-03T00:38:44.615Z,99890.36
2018-03-03T00:43:46.131Z,99871.39
2018-03-03T00:48:47.768Z,99878.54
2018-03-03T00:53:49.486Z,99881.40
2018-03-03T00:58:51.736Z,99889.26
2018-03-03T01:03:53.108Z,99883.56
2018-03-03T01:08:54.650Z,99886.52
2018-03-03T01:13:56.834Z,99882.05
2018-03-03T01:18:58.364Z,99885.72
2018-03-03T01:23:59.873Z,99879.33
2018-03-03T01:29:02.159Z,99883.36
2018-03-03T01:34:03.710Z,99868.70
2018-03-03T01:39:05.298Z,99873.18
2018-03-03T01:44:06.894Z,99873.29
2018-03-03T01:49:08.531Z,99868.32
2018-03-03T01:54:09.870Z,99869.44
2018-03-03T01:59:11.433Z,99869.95
2018-03-03T02:04:12.987Z,99868.45
2018-03-03T02:09:14.508Z,99861.39
2018-03-03T02:14:16.154Z,99854.45
2018-03-03T02:19:18.224Z,99863.17
2018-03-03T02:24:19.800Z,99847.84
2018-03-03T02:29:21.339Z,99841.89
2018-03-03T02:34:23.772Z,99845.88
2018-03-03T02:39:25.412Z,99830.03
2018-03-03T02:44:26.992Z,99823.08
2018-03-03T02:49:28.600Z,99825.63
2018-03-03T02:54:30.236Z,99827.64
2018-03-03T02:59:31.834Z,99833.95
2018-03-03T03:04:33.396Z,99828.45
2018-03-03T03:09:34.987Z,99805.03
2018-03-03T03:14:36.545Z,99809.05
2018-03-03T03:19:38.068Z,99806.61
2018-03-03T03:24:39.656Z,99801.24
2018-03-03T03:29:41.195Z,99803.80
2018-03-03T03:34:42.746Z,99803.91
2018-03-03T03:39:44.253Z,99802.77
2018-03-03T03:44:52.705Z,99804.86
2018-03-03T03:49:54.810Z,99805.84
2018-03-03T03:54:56.314Z,99808.06
2018-03-03T03:59:57.862Z,99804.67
2018-03-03T04:05:00.144Z,99799.05
2018-03-03T04:10:01.741Z,99806.53
2018-03-03T04:15:03.278Z,99813.61
2018-03-03T04:20:04.909Z,99798.57
2018-03-03T04:25:06.567Z,99802.80
2018-03-03T04:30:08.116Z,99794.81
2018-03-03T04:35:09.691Z,99801.34
2018-03-03T04:40:11.194Z,99801.36
2018-03-03T04:45:12.719Z,99785.51
2018-03-03T04:50:15.035Z,99794.46
2018-03-03T04:55:17.139Z,99778.20
2018-03-03T05:00:24.694Z,99786.31
2018-03-03T05:05:32.260Z,99781.61
2018-03-03T05:10:34.664Z,99779.05
2018-03-03T05:15:39.992Z,99771.87
2018-03-03T05:26:25.005Z,99784.86
2018-03-03T05:31:32.746Z,99777.84
2018-03-03T05:36:40.107Z,99788.56
2018-03-03T05:41:47.685Z,99765.30
2018-03-03T05:46:55.386Z,99765.35
2018-03-03T05:51:59.863Z,99769.89
2018-03-03T05:57:07.448Z,99764.08
2018-03-03T06:02:15.746Z,99761.61
2018-03-03T06:07:23.329Z,99766.56
2018-03-03T06:12:24.876Z,99758.88
2018-03-03T06:17:26.444Z,99760.91
2018-03-03T06:22:28.009Z,99763.48
2018-03-03T06:27:30.583Z,99759.81
2018-03-03T06:32:31.967Z,99763.40
2018-03-03T06:37:33.552Z,99769.78
2018-03-03T06:42:35.112Z,99785.23
2018-03-03T06:47:37.415Z,99777.66
2018-03-03T06:52:38.961Z,99793.02
2018-03-03T06:57:40.513Z,99785.05
2018-03-03T07:02:42.837Z,99788.05
2018-03-03T07:07:45.204Z,99772.36
2018-03-03T07:12:46.791Z,99778.36
2018-03-03T07:17:48.401Z,99795.31
2018-03-03T07:22:50.060Z,99797.42
2018-03-03T07:27:51.597Z,99795.59
2018-03-03T07:32:53.142Z,99798.86
2018-03-03T07:37:54.673Z,99794.44
2018-03-03T07:42:56.416Z,99807.16
2018-03-03T07:47:58.772Z,99810.94
2018-03-03T07:53:00.340Z,99802.70
2018-03-03T07:58:01.946Z,99822.62
2018-03-03T08:03:03.522Z,99808.73
2018-03-03T08:08:05.821Z,99823.53
2018-03-03T08:13:08.075Z,99824.33
2018-03-03T08:18:09.647Z,99808.38
2018-03-03T08:23:11.218Z,99816.22
2018-03-03T08:28:13.477Z,99813.68
2018-03-03T08:33:15.009Z,99816.14
2018-03-03T08:38:16.582Z,99810.91
2018-03-03T08:43:18.098Z,99806.94
2018-03-03T08:48:19.610Z,99811.30
2018-03-03T08:53:21.850Z,99810.28
2018-03-03T08:58:23.452Z,99809.13
2018-03-03T09:03:25.127Z,99797.09
2018-03-03T09:08:27.536Z,99794.38
2018-03-03T09:13:29.835Z,99805.31
2018-03-03T09:18:32.188Z,99795.71
2018-03-03T09:23:34.044Z,99801.86
2018-03-03T09:28:35.474Z,99807.73
2018-03-03T09:33:37.088Z,99801.51
2018-03-03T09:38:38.633Z,99800.11
2018-03-03T09:43:40.902Z,99789.54
2018-03-03T09:48:42.507Z,99792.78
2018-03-03T09:53:44.052Z,99792.91
2018-03-03T09:58:45.563Z,99793.51
2018-03-03T10:03:47.117Z,99784.95
2018-03-03T10:08:49.416Z,99780.76
2018-03-03T10:13:51.699Z,99781.61
2018-03-03T10:18:53.233Z,99778.31
2018-03-03T10:23:55.539Z,99782.22
2018-03-03T10:28:57.080Z,99783.12
2018-03-03T10:33:58.713Z,99780.20
2018-03-03T10:39:00.313Z,99792.59
2018-03-03T10:44:01.875Z,99790.06
2018-03-03T10:49:03.417Z,99785.81
2018-03-03T10:54:04.973Z,99780.70
2018-03-03T10:59:06.518Z,99784.56
2018-03-03T11:04:09.075Z,99785.41
2018-03-03T11:09:10.667Z,99778.97
2018-03-03T11:14:12.233Z,99791.78
2018-03-03T11:19:13.774Z,99778.94
2018-03-03T11:24:15.426Z,99787.47
2018-03-03T11:29:17.011Z,99780.64
2018-03-03T11:34:19.422Z,99773.30
2018-03-03T11:39:21.631Z,99772.39
2018-03-03T11:44:23.952Z,99754.31
2018-03-03T11:49:26.418Z,99754.70
2018-03-03T11:54:28.047Z,99764.91
2018-03-03T11:59:29.671Z,99752.83
2018-03-03T12:04:31.280Z,99753.58
2018-03-03T12:09:32.842Z,99740.33
2018-03-03T12:14:35.123Z,99738.30
2018-03-03T12:19:36.709Z,99745.88
2018-03-03T12:24:38.291Z,99740.14
2018-03-03T12:29:39.859Z,99741.29
2018-03-03T12:34:41.335Z,99747.83
2018-03-03T12:39:42.939Z,99739.80
2018-03-03T12:44:44.471Z,99739.86
2018-03-03T12:49:46.451Z,99730.34
2018-03-03T12:54:47.982Z,99724.73
2018-03-03T12:59:49.544Z,99719.73
2018-03-03T13:04:51.103Z,99725.64
2018-03-03T13:09:53.423Z,99720.75
2018-03-03T13:14:55.747Z,99720.59
2018-03-03T13:19:59.104Z,99714.73
2018-03-03T13:25:00.657Z,99719.05
2018-03-03T13:30:02.241Z,99722.12
2018-03-03T13:35:03.821Z,99709.63
2018-03-03T13:40:05.354Z,99723.50
2018-03-03T13:45:07.630Z,99723.58
2018-03-03T13:50:09.198Z,99714.48
2018-03-03T13:55:10.758Z,99717.63
2018-03-03T14:00:13.093Z,99717.06
2018-03-03T14:05:14.648Z,99712.08
2018-03-03T14:10:16.318Z,99704.20
2018-03-03T14:15:17.884Z,99710.44
2018-03-03T14:20:19.450Z,99700.77
2018-03-03T14:25:21.703Z,99694.70
2018-03-03T14:30:23.247Z,99700.52
2018-03-03T14:35:25.538Z,99704.44
2018-03-03T14:40:27.065Z,99704.84
2018-03-03T14:45:29.353Z,99706.14
2018-03-03T14:50:30.902Z,99708.59
2018-03-03T14:55:32.446Z,99717.34
2018-03-03T15:00:33.994Z,99707.86
2018-03-03T15:05:35.518Z,99714.68
2018-03-03T15:10:37.117Z,99712.42
2018-03-03T15:15:38.704Z,99711.72
2018-03-03T15:20:40.350Z,99710.75
2018-03-03T15:25:42.021Z,99715.58
2018-03-03T15:30:44.387Z,99710.02
2018-03-03T15:35:46.608Z,99724.33
2018-03-03T15:40:48.179Z,99720.02
2018-03-03T15:45:49.849Z,99714.09
2018-03-03T15:50:51.957Z,99712.92
2018-03-03T15:55:54.264Z,99715.20
2018-03-03T16:00:56.529Z,99724.34
2018-03-03T16:05:58.124Z,99726.41
2018-03-03T16:10:59.662Z,99735.63
2018-03-03T16:16:01.195Z,99730.44
2018-03-03T16:21:02.772Z,99736.04
2018-03-03T16:26:04.673Z,99732.33
2018-03-03T16:31:06.188Z,99740.02
2018-03-03T16:36:07.719Z,99740.05
2018-03-03T16:41:09.347Z,99730.66
2018-03-03T16:46:11.770Z,99751.55
2018-03-03T16:51:13.404Z,99746.38
2018-03-03T16:56:14.936Z,99752.06
2018-03-03T17:01:16.503Z,99731.93
2018-03-03T17:06:18.087Z,99762.88
2018-03-03T17:11:19.672Z,99759.02
2018-03-03T17:16:21.220Z,99769.27
2018-03-03T17:21:22.786Z,99765.88
2018-03-03T17:26:24.324Z,99773.98
2018-03-03T17:31:26.624Z,99779.33
2018-03-03T17:36:28.912Z,99772.20
2018-03-03T17:41:30.493Z,99778.61
2018-03-03T17:46:32.074Z,99783.72
2018-03-03T17:51:33.656Z,99779.78
2018-03-03T17:56:35.114Z,99779.53
2018-03-03T18:01:36.783Z,99772.94
2018-03-03T18:06:38.348Z,99778.52
2018-03-03T18:11:39.916Z,99778.44
2018-03-03T18:16:42.218Z,99782.75
2018-03-03T18:21:43.893Z,99755.62
2018-03-03T18:26:45.451Z,99778.78
2018-03-03T18:31:47.021Z,99770.17
2018-03-03T18:36:48.567Z,99773.63
2018-03-03T18:41:50.095Z,99764.14
2018-03-03T18:46:52.418Z,99780.53
2018-03-03T18:51:54.687Z,99780.96
2018-03-03T18:56:56.374Z,99779.16
2018-03-03T19:01:57.738Z,99785.95
2018-03-03T19:06:59.323Z,99777.05
2018-03-03T19:12:00.899Z,99772.34
2018-03-03T19:17:02.524Z,99783.06
2018-03-03T19:22:04.203Z,99777.33
2018-03-03T19:27:06.488Z,99774.98
2018-03-03T19:32:08.951Z,99769.89
2018-03-03T19:37:10.571Z,99761.92
2018-03-03T19:42:12.132Z,99755.91
2018-03-03T19:47:13.692Z,99762.58
2018-03-03T19:52:15.273Z,99763.42
2018-03-03T19:57:16.817Z,99771.69
2018-03-03T20:02:18.414Z,99763.38
2018-03-03T20:07:19.961Z,99766.41
2018-03-03T20:12:21.295Z,99770.04
2018-03-03T20:17:22.840Z,99765.69
2018-03-03T20:22:24.410Z,99772.73
2018-03-03T20:27:25.955Z,99773.86
2018-03-03T20:32:28.265Z,99762.00
2018-03-03T20:37:30.544Z,99764.64
2018-03-03T20:42:32.208Z,99745.52
2018-03-03T20:47:33.724Z,99751.86
2018-03-03T20:52:35.261Z,99751.83
2018-03-03T20:57:37.595Z,99755.22
2018-03-03T21:02:38.983Z,99747.08
2018-03-03T21:07:40.524Z,99745.62
2018-03-03T21:12:42.079Z,99751.66
2018-03-03T21:17:43.619Z,99747.41
2018-03-03T21:22:45.192Z,99742.30
2018-03-03T21:27:46.820Z,99736.77
2018-03-03T21:32:48.319Z,99736.61
2018-03-03T21:37:49.888Z,99731.16
2018-03-03T21:42:51.504Z,99742.57
2018-03-03T21:47:53.043Z,99739.82
2018-03-03T21:52:54.597Z,99738.89
2018-03-03T21:57:56.127Z,99744.80
2018-03-03T22:02:57.687Z,99743.27
2018-03-03T22:07:59.337Z,99748.33
2018-03-03T22:13:00.902Z,99747.73
2018-03-03T22:18:03.296Z,99766.31
2018-03-03T22:23:04.821Z,99764.12
2018-03-03T22:28:06.353Z,99753.69
2018-03-03T22:33:07.899Z,99761.42
2018-03-03T22:38:10.207Z,99763.59
2018-03-03T22:43:12.474Z,99762.02
2018-03-03T22:48:14.039Z,99756.69
2018-03-03T22:53:15.597Z,99751.60
2018-03-03T22:58:17.896Z,99739.23
2018-03-03T23:03:19.451Z,99738.48
2018-03-03T23:08:20.992Z,99755.66
2018-03-03T23:13:22.574Z,99754.00
2018-03-03T23:18:24.132Z,99749.69
2018-03-03T23:23:25.681Z,99746.02
2018-03-03T23:28:27.201Z,99741.59
2018-03-03T23:33:28.719Z,99727.01
2018-03-03T23:38:45.156Z,99730.52
2018-03-03T23:43:46.713Z,99728.84
2018-03-03T23:48:49.020Z,99728.44
2018-03-03T23:53:51.359Z,99725.37
2018-03-03T23:58:52.867Z,99725.48
